createdAt,value
2023-04-12T00:01:22.448Z,7.20
2023-04-12T00:04:29.055Z,7.22
2023-04-12T00:07:33.812Z,7.65
2023-04-12T00:10:37.727Z,6.70
2023-04-12T00:13:41.393Z,6.88
2023-04-12T00:16:44.786Z,6.87
2023-04-12T00:19:50.100Z,5.25
2023-04-12T00:22:54.044Z,4.50
2023-04-12T00:25:57.349Z,4.75
2023-04-12T00:29:01.315Z,4.68
2023-04-12T00:32:06.011Z,3.60
2023-04-12T00:35:09.654Z,4.18
2023-04-12T00:38:13.841Z,3.05
2023-04-12T00:41:17.713Z,4.22
2023-04-12T00:44:21.166Z,4.35
2023-04-12T00:47:24.660Z,3.90
2023-04-12T00:50:29.943Z,5.10
2023-04-12T00:53:34.509Z,5.00
2023-04-12T00:56:41.783Z,3.92
2023-04-12T00:59:45.437Z,6.15
2023-04-12T01:02:50.718Z,5.87
2023-04-12T01:06:04.381Z,6.05
2023-04-12T01:09:36.341Z,6.40
2023-04-12T01:12:51.794Z,5.75
2023-04-12T01:16:00.373Z,5.75
2023-04-12T01:19:18.412Z,6.10
2023-04-12T01:22:57.193Z,6.15
2023-04-12T01:26:09.259Z,6.47
2023-04-12T01:29:21.874Z,6.43
2023-04-12T01:32:25.980Z,6.07
2023-04-12T01:35:32.424Z,6.13
2023-04-12T01:38:39.059Z,4.05
2023-04-12T01:41:45.707Z,2.60
2023-04-12T01:44:50.122Z,2.10
2023-04-12T01:47:53.644Z,1.33
2023-04-12T01:51:26.163Z,1.13
2023-04-12T01:54:37.051Z,1.05
2023-04-12T01:57:43.547Z,1.15
2023-04-12T02:00:47.588Z,0.82
2023-04-12T02:03:52.360Z,0.85
2023-04-12T02:06:56.271Z,0.67
2023-04-12T02:09:59.694Z,0.70
2023-04-12T02:13:04.348Z,0.80
2023-04-12T02:16:08.354Z,1.02
2023-04-12T02:19:13.050Z,0.90
2023-04-12T02:22:18.688Z,0.80
2023-04-12T02:25:22.294Z,0.95
2023-04-12T02:28:25.698Z,0.60
2023-04-12T02:31:31.836Z,0.90
2023-04-12T02:34:36.845Z,0.70
2023-04-12T02:37:51.515Z,0.70
2023-04-12T02:40:55.743Z,0.70
2023-04-12T02:43:59.303Z,1.13
2023-04-12T02:47:03.615Z,0.60
2023-04-12T02:50:10.035Z,0.70
2023-04-12T02:53:23.498Z,0.60
2023-04-12T02:56:41.009Z,0.60
2023-04-12T03:00:07.513Z,0.80
2023-04-12T03:03:18.120Z,0.80
2023-04-12T03:06:23.773Z,0.70
2023-04-12T03:09:27.265Z,0.80
2023-04-12T03:12:41.138Z,0.80
2023-04-12T03:16:00.125Z,0.93
2023-04-12T03:19:13.325Z,0.70
2023-04-12T03:22:17.597Z,0.95
2023-04-12T03:25:24.731Z,0.80
2023-04-12T03:28:33.425Z,1.08
2023-04-12T03:31:39.089Z,0.90
2023-04-12T03:34:45.751Z,0.88
2023-04-12T03:37:52.079Z,0.90
2023-04-12T03:40:55.628Z,0.90
2023-04-12T03:44:06.033Z,0.90
2023-04-12T03:47:11.485Z,0.95
2023-04-12T03:50:15.329Z,0.70
2023-04-12T03:53:28.449Z,0.75
2023-04-12T03:56:31.900Z,0.90
2023-04-12T03:59:39.068Z,0.80
2023-04-12T04:02:42.850Z,0.90
2023-04-12T04:05:46.569Z,1.05
2023-04-12T04:08:51.560Z,1.10
2023-04-12T04:11:55.128Z,0.67
2023-04-12T04:14:59.280Z,0.90
2023-04-12T04:18:07.901Z,0.98
2023-04-12T04:21:11.381Z,1.02
2023-04-12T04:24:15.524Z,1.10
2023-04-12T04:27:23.110Z,0.80
2023-04-12T04:30:28.320Z,0.90
2023-04-12T04:33:32.836Z,1.00
2023-04-12T04:36:38.953Z,0.85
2023-04-12T04:39:43.449Z,1.02
2023-04-12T04:42:54.437Z,0.80
2023-04-12T04:46:01.100Z,0.90
2023-04-12T04:49:05.695Z,1.00
2023-04-12T04:52:10.018Z,1.10
2023-04-12T04:55:13.350Z,0.95
2023-04-12T04:58:21.068Z,1.10
2023-04-12T05:01:28.652Z,1.05
2023-04-12T05:04:34.551Z,1.10
2023-04-12T05:07:38.688Z,1.10
2023-04-12T05:10:44.487Z,0.90
2023-04-12T05:13:48.652Z,0.77
2023-04-12T05:16:52.178Z,0.85
2023-04-12T05:19:55.960Z,1.10
2023-04-12T05:22:59.400Z,1.00
2023-04-12T05:26:02.778Z,1.08
2023-04-12T05:29:17.502Z,1.30
2023-04-12T05:32:21.938Z,1.40
2023-04-12T05:35:26.130Z,1.20
2023-04-12T05:38:34.929Z,1.08
2023-04-12T05:41:41.875Z,1.08
2023-04-12T05:44:46.952Z,1.07
2023-04-12T05:47:51.984Z,1.00
2023-04-12T05:50:56.002Z,1.20
2023-04-12T05:54:01.550Z,1.20
2023-04-12T05:57:09.016Z,1.40
2023-04-12T06:00:19.363Z,1.10
2023-04-12T06:03:24.104Z,1.00
2023-04-12T06:06:30.591Z,0.88
2023-04-12T06:09:35.678Z,1.10
2023-04-12T06:12:39.681Z,0.80
2023-04-12T06:15:44.058Z,0.80
2023-04-12T06:18:48.663Z,0.90
2023-04-12T06:21:53.104Z,1.10
2023-04-12T06:24:57.237Z,1.08
2023-04-12T06:28:01.711Z,0.90
2023-04-12T06:31:05.898Z,1.13
2023-04-12T06:34:14.103Z,1.17
2023-04-12T06:37:17.581Z,1.20
2023-04-12T06:40:21.140Z,1.02
2023-04-12T06:43:24.540Z,1.30
2023-04-12T06:46:28.738Z,1.00
2023-04-12T06:49:32.110Z,1.45
2023-04-12T06:52:35.596Z,1.30
2023-04-12T06:55:39.408Z,1.23
2023-04-12T06:58:42.796Z,1.73
2023-04-12T07:01:46.669Z,1.30
2023-04-12T07:04:54.757Z,1.52
2023-04-12T07:07:58.526Z,1.50
2023-04-12T07:11:14.624Z,2.47
2023-04-12T07:14:24.520Z,2.55
2023-04-12T07:17:28.176Z,1.83
2023-04-12T07:20:31.730Z,1.80
2023-04-12T07:23:35.454Z,2.13
2023-04-12T07:26:39.030Z,2.63
2023-04-12T07:29:44.251Z,2.70
2023-04-12T07:32:49.756Z,2.53
2023-04-12T07:35:54.441Z,2.80
2023-04-12T07:38:58.031Z,2.55
2023-04-12T07:42:01.859Z,2.83
2023-04-12T07:45:07.434Z,2.50
2023-04-12T07:48:12.074Z,2.20
2023-04-12T07:51:15.372Z,2.25
2023-04-12T07:54:18.887Z,3.15
2023-04-12T07:57:23.598Z,2.85
2023-04-12T08:00:27.405Z,3.42
2023-04-12T08:03:31.201Z,2.67
2023-04-12T08:06:35.136Z,2.90
2023-04-12T08:09:38.969Z,3.13
2023-04-12T08:12:42.467Z,3.60
2023-04-12T08:15:47.810Z,3.00
2023-04-12T08:18:51.541Z,2.40
2023-04-12T08:21:55.447Z,2.60
2023-04-12T08:24:59.178Z,2.50
2023-04-12T08:28:04.049Z,3.00
2023-04-12T08:31:08.957Z,2.38
2023-04-12T08:34:12.300Z,2.60
2023-04-12T08:37:17.063Z,2.50
2023-04-12T08:40:21.975Z,2.20
2023-04-12T08:43:29.457Z,2.30
2023-04-12T08:46:36.162Z,2.40
2023-04-12T08:49:40.678Z,2.10
2023-04-12T08:52:44.924Z,2.53
2023-04-12T08:55:48.601Z,2.22
2023-04-12T08:58:54.070Z,2.20
2023-04-12T09:01:59.236Z,1.95
2023-04-12T09:05:08.730Z,1.90
2023-04-12T09:08:17.769Z,2.20
2023-04-12T09:11:53.884Z,2.25
2023-04-12T09:15:14.870Z,1.88
2023-04-12T09:18:35.194Z,2.38
2023-04-12T09:21:56.202Z,2.30
2023-04-12T09:25:05.407Z,2.00
2023-04-12T09:28:29.154Z,2.20
2023-04-12T09:31:34.768Z,1.70
2023-04-12T09:34:40.197Z,2.10
2023-04-12T09:37:43.974Z,1.97
2023-04-12T09:40:48.770Z,1.88
2023-04-12T09:43:52.524Z,2.28
2023-04-12T09:46:57.032Z,2.05
2023-04-12T09:50:01.035Z,2.10
2023-04-12T09:53:16.814Z,2.17
2023-04-12T09:56:23.644Z,1.83
2023-04-12T09:59:30.843Z,2.00
2023-04-12T10:02:35.371Z,2.42
2023-04-12T10:05:41.421Z,1.77
2023-04-12T10:08:46.440Z,1.87
2023-04-12T10:11:51.903Z,1.70
2023-04-12T10:14:56.914Z,2.40
2023-04-12T10:18:02.755Z,2.15
2023-04-12T10:21:09.936Z,2.20
2023-04-12T10:24:13.531Z,2.03
2023-04-12T10:27:26.479Z,2.38
2023-04-12T10:30:31.844Z,2.10
2023-04-12T10:33:37.999Z,2.20
2023-04-12T10:36:56.946Z,1.90
2023-04-12T10:40:04.154Z,2.13
2023-04-12T10:43:28.102Z,2.25
2023-04-12T10:46:44.063Z,2.33
2023-04-12T10:50:25.959Z,2.08
2023-04-12T10:53:34.198Z,2.60
2023-04-12T10:56:53.620Z,2.27
2023-04-12T11:00:10.080Z,2.20
2023-04-12T11:03:15.177Z,1.95
2023-04-12T11:06:26.594Z,2.40
2023-04-12T11:10:01.957Z,2.30
2023-04-12T11:13:14.658Z,1.97
2023-04-12T11:16:18.135Z,2.08
2023-04-12T11:19:22.847Z,2.50
2023-04-12T11:22:32.154Z,1.95
2023-04-12T11:25:36.206Z,2.13
2023-04-12T11:28:39.499Z,2.23
2023-04-12T11:31:43.023Z,2.10
2023-04-12T11:34:47.850Z,2.22
2023-04-12T11:37:51.424Z,2.15
2023-04-12T11:40:56.355Z,2.30
2023-04-12T11:44:01.861Z,2.17
2023-04-12T11:47:07.205Z,2.13
2023-04-12T11:50:14.455Z,2.20
2023-04-12T11:53:19.888Z,2.40
2023-04-12T11:56:27.121Z,1.92
2023-04-12T11:59:35.536Z,1.90
2023-04-12T12:02:46.552Z,2.40
2023-04-12T12:05:56.584Z,2.05
2023-04-12T12:09:00.808Z,2.63
2023-04-12T12:12:05.255Z,2.30
2023-04-12T12:15:11.876Z,2.50
2023-04-12T12:18:15.644Z,2.97
2023-04-12T12:21:19.476Z,2.30
2023-04-12T12:24:23.648Z,2.35
2023-04-12T12:27:38.102Z,3.08
2023-04-12T12:30:42.044Z,2.60
2023-04-12T12:33:47.679Z,2.38
2023-04-12T12:36:56.839Z,2.00
2023-04-12T12:40:16.833Z,2.35
2023-04-12T12:43:21.692Z,2.40
2023-04-12T12:46:37.321Z,2.70
2023-04-12T12:49:50.464Z,2.65
2023-04-12T12:52:55.480Z,2.10
2023-04-12T12:55:59.694Z,2.60
2023-04-12T12:59:03.920Z,2.40
2023-04-12T13:02:08.858Z,3.10
2023-04-12T13:05:13.931Z,2.17
2023-04-12T13:08:19.307Z,2.40
2023-04-12T13:11:26.212Z,2.72
2023-04-12T13:14:32.050Z,2.80
2023-04-12T13:17:36.974Z,2.23
2023-04-12T13:20:42.123Z,2.33
2023-04-12T13:23:46.691Z,3.67
2023-04-12T13:26:52.029Z,2.67
2023-04-12T13:29:56.393Z,2.28
2023-04-12T13:33:01.001Z,4.40
2023-04-12T13:36:05.551Z,2.65
2023-04-12T13:39:09.878Z,2.40
2023-04-12T13:42:14.382Z,2.42
2023-04-12T13:45:18.680Z,2.75
2023-04-12T13:48:23.723Z,2.70
2023-04-12T13:51:28.767Z,3.15
2023-04-12T13:54:33.417Z,2.75
2023-04-12T13:57:38.161Z,2.65
2023-04-12T14:00:42.996Z,3.17
2023-04-12T14:03:48.629Z,2.50
2023-04-12T14:06:54.409Z,10.50
2023-04-12T14:09:59.265Z,2.95
2023-04-12T14:13:04.063Z,3.50
2023-04-12T14:16:08.977Z,2.45
2023-04-12T14:19:14.744Z,2.90
2023-04-12T14:22:19.152Z,2.40
2023-04-12T14:25:25.200Z,5.63
2023-04-12T14:28:31.955Z,2.53
2023-04-12T14:31:36.929Z,2.92
2023-04-12T14:34:43.878Z,2.87
2023-04-12T14:37:48.511Z,2.53
2023-04-12T14:40:55.313Z,3.00
2023-04-12T14:44:02.742Z,3.50
2023-04-12T14:47:07.048Z,3.00
2023-04-12T14:50:12.063Z,2.57
2023-04-12T14:53:20.291Z,2.63
2023-04-12T14:56:30.772Z,2.97
2023-04-12T14:59:35.824Z,2.50
2023-04-12T15:02:41.602Z,2.90
2023-04-12T15:05:47.575Z,2.30
2023-04-12T15:08:54.847Z,2.85
2023-04-12T15:12:02.443Z,2.70
2023-04-12T15:15:07.539Z,2.90
2023-04-12T15:18:11.925Z,2.75
2023-04-12T15:21:16.414Z,2.80
2023-04-12T15:24:21.555Z,3.67
2023-04-12T15:27:26.460Z,3.92
2023-04-12T15:30:32.353Z,4.15
2023-04-12T15:33:37.622Z,3.47
2023-04-12T15:36:43.570Z,3.37
2023-04-12T15:39:49.542Z,4.85
2023-04-12T15:42:54.333Z,5.47
2023-04-12T15:46:00.145Z,5.70
2023-04-12T15:49:06.005Z,5.72
2023-04-12T15:52:11.800Z,4.23
2023-04-12T15:55:20.904Z,4.63
2023-04-12T15:58:27.692Z,4.60
2023-04-12T16:01:33.300Z,5.00
2023-04-12T16:04:39.574Z,7.57
2023-04-12T16:07:45.673Z,5.50
2023-04-12T16:10:51.305Z,5.45
2023-04-12T16:13:56.668Z,4.47
2023-04-12T16:17:02.340Z,4.38
2023-04-12T16:20:07.900Z,4.25
2023-04-12T16:23:19.386Z,4.93
2023-04-12T16:26:24.036Z,5.25
2023-04-12T16:29:29.503Z,5.13
2023-04-12T16:32:36.607Z,7.15
2023-04-12T16:35:43.607Z,5.15
2023-04-12T16:38:52.112Z,5.37
2023-04-12T16:41:57.163Z,4.47
2023-04-12T16:45:01.848Z,4.88
2023-04-12T16:48:07.071Z,4.80
2023-04-12T16:51:14.432Z,4.70
2023-04-12T16:54:19.375Z,4.20
2023-04-12T16:57:24.906Z,5.40
2023-04-12T17:00:33.056Z,5.35
2023-04-12T17:03:39.675Z,5.07
2023-04-12T17:06:44.801Z,5.57
2023-04-12T17:09:50.693Z,4.67
2023-04-12T17:13:02.408Z,4.50
2023-04-12T17:16:09.135Z,4.57
2023-04-12T17:19:13.744Z,4.68
2023-04-12T17:22:18.647Z,4.13
2023-04-12T17:25:27.330Z,4.00
2023-04-12T17:28:35.350Z,4.47
2023-04-12T17:31:41.560Z,4.32
2023-04-12T17:34:45.913Z,3.95
2023-04-12T17:37:50.679Z,4.53
2023-04-12T17:40:55.324Z,6.87
2023-04-12T17:44:00.973Z,7.55
2023-04-12T17:47:05.817Z,6.78
2023-04-12T17:50:12.108Z,7.90
2023-04-12T17:53:17.033Z,10.90
2023-04-12T17:56:23.279Z,12.93
2023-04-12T17:59:27.469Z,11.23
2023-04-12T18:02:31.538Z,9.50
2023-04-12T18:05:35.540Z,9.05
2023-04-12T18:08:39.549Z,11.25
2023-04-12T18:11:43.621Z,11.27
2023-04-12T18:14:47.373Z,14.38
2023-04-12T18:17:51.061Z,15.15
2023-04-12T18:20:54.934Z,11.13
2023-04-12T18:23:59.925Z,7.65
2023-04-12T18:27:05.454Z,8.23
2023-04-12T18:30:09.522Z,10.98
2023-04-12T18:33:13.413Z,11.60
2023-04-12T18:36:17.458Z,12.93
2023-04-12T18:39:21.611Z,10.52
2023-04-12T18:42:25.940Z,9.50
2023-04-12T18:45:29.675Z,15.63
2023-04-12T18:48:33.688Z,17.17
2023-04-12T18:51:37.760Z,19.05
2023-04-12T18:54:41.542Z,18.73
2023-04-12T18:57:47.096Z,17.37
2023-04-12T19:00:54.888Z,17.33
2023-04-12T19:04:01.380Z,15.68
2023-04-12T19:07:05.554Z,16.05
2023-04-12T19:10:09.590Z,20.13
2023-04-12T19:13:13.459Z,17.10
2023-04-12T19:16:17.642Z,15.52
2023-04-12T19:19:21.465Z,19.38
2023-04-12T19:22:28.024Z,29.58
2023-04-12T19:25:33.100Z,16.42
2023-04-12T19:28:37.439Z,24.53
2023-04-12T19:31:41.475Z,34.70
2023-04-12T19:34:45.436Z,40.00
2023-04-12T19:37:50.287Z,25.02
2023-04-12T19:40:54.828Z,18.98
2023-04-12T19:43:58.839Z,17.77
2023-04-12T19:47:04.089Z,22.48
2023-04-12T19:50:08.753Z,19.83
2023-04-12T19:53:17.910Z,22.95
2023-04-12T19:56:23.822Z,17.95
2023-04-12T19:59:30.913Z,13.07
2023-04-12T20:02:35.929Z,12.73
2023-04-12T20:05:40.080Z,11.85
2023-04-12T20:08:43.697Z,12.13
2023-04-12T20:11:47.487Z,11.23
2023-04-12T20:14:51.161Z,10.43
2023-04-12T20:17:54.618Z,10.55
2023-04-12T20:20:58.727Z,10.30
2023-04-12T20:24:04.056Z,10.63
2023-04-12T20:27:08.820Z,10.68
2023-04-12T20:30:16.965Z,9.97
2023-04-12T20:33:20.748Z,10.52
2023-04-12T20:36:26.485Z,10.48
2023-04-12T20:39:31.261Z,10.02
2023-04-12T20:42:34.919Z,10.23
2023-04-12T20:45:38.528Z,9.30
2023-04-12T20:48:43.322Z,10.10
2023-04-12T20:51:48.621Z,10.85
2023-04-12T20:54:53.592Z,10.02
2023-04-12T20:57:57.565Z,9.95
2023-04-12T21:01:05.032Z,9.83
2023-04-12T21:04:09.135Z,9.32
2023-04-12T21:07:13.079Z,9.07
2023-04-12T21:10:16.532Z,10.32
2023-04-12T21:13:22.078Z,8.65
2023-04-12T21:16:26.229Z,8.53
2023-04-12T21:19:29.663Z,9.02
2023-04-12T21:22:33.293Z,8.20
2023-04-12T21:25:36.741Z,8.93
2023-04-12T21:28:41.095Z,9.63
2023-04-12T21:31:44.515Z,8.30
2023-04-12T21:34:48.445Z,8.73
2023-04-12T21:37:52.408Z,9.20
2023-04-12T21:40:58.844Z,8.98
2023-04-12T21:44:02.250Z,9.27
2023-04-12T21:47:06.746Z,8.90
2023-04-12T21:50:10.986Z,9.95
2023-04-12T21:53:14.496Z,9.60
2023-04-12T21:56:17.854Z,8.75
2023-04-12T21:59:21.240Z,9.88
2023-04-12T22:02:25.875Z,8.47
2023-04-12T22:05:29.820Z,10.02
2023-04-12T22:08:34.296Z,9.50
2023-04-12T22:11:37.743Z,10.20
2023-04-12T22:14:46.675Z,10.93
2023-04-12T22:17:50.141Z,9.63
2023-04-12T22:20:53.972Z,10.80
2023-04-12T22:23:58.231Z,11.00
2023-04-12T22:27:02.006Z,10.15
2023-04-12T22:30:06.931Z,10.73
2023-04-12T22:33:10.549Z,10.50
2023-04-12T22:36:17.753Z,9.68
2023-04-12T22:39:21.433Z,9.75
2023-04-12T22:42:26.565Z,9.18
2023-04-12T22:45:31.421Z,10.27
2023-04-12T22:48:34.785Z,8.73
2023-04-12T22:51:38.452Z,8.27
2023-04-12T22:54:41.834Z,8.98
2023-04-12T22:57:45.323Z,9.10
2023-04-12T23:00:51.945Z,9.18
2023-04-12T23:03:55.318Z,8.60
2023-04-12T23:06:58.736Z,9.52
2023-04-12T23:10:02.250Z,9.32
2023-04-12T23:13:06.079Z,8.55
2023-04-12T23:16:09.555Z,7.97
2023-04-12T23:19:14.901Z,9.27
2023-04-12T23:22:55.890Z,8.63
2023-04-12T23:26:01.056Z,9.75
2023-04-12T23:29:04.876Z,8.57
2023-04-12T23:32:08.391Z,9.52
2023-04-12T23:35:12.313Z,8.93
2023-04-12T23:38:24.466Z,9.35
2023-04-12T23:41:31.701Z,10.45
2023-04-12T23:44:35.155Z,9.57
2023-04-12T23:47:38.856Z,10.38
2023-04-12T23:50:45.835Z,9.87
2023-04-12T23:53:50.587Z,9.15
2023-04-12T23:56:54.124Z,9.35
2023-04-12T23:59:57.662Z,9.02
